Time;durP1;ratioP1;P1;durP2;ratioP2;P2;SDS_P1;SDS_P2;PMS_P1;PMS_P2;Temp;Humidity;BMP_temperature;BMP_pressure;BME280_temperature;BME280_humidity;BME280_pressure;Samples;Min_cycle;Max_cycle;Signal;HPM_P1;HPM_P2
2021/05/12 00:01:08;;;;;;;7.65;6.88;;;12.40;99.90;;;;;;5015274;28;20666;-77
2021/05/12 00:03:35;;;;;;;6.82;6.03;;;12.40;99.90;;;;;;5014416;28;20242;-77
2021/05/12 00:06:02;;;;;;;6.93;5.68;;;12.40;99.90;;;;;;5014172;28;20239;-75
2021/05/12 00:08:28;;;;;;;6.90;6.05;;;12.30;99.90;;;;;;5014461;28;20239;-76
2021/05/12 00:10:55;;;;;;;9.70;5.82;;;12.30;99.90;;;;;;5014623;28;20294;-76
2021/05/12 00:13:21;;;;;;;7.13;5.75;;;12.20;99.90;;;;;;5014883;28;20295;-77
2021/05/12 00:15:49;;;;;;;6.18;5.40;;;12.20;99.90;;;;;;5015276;28;20246;-76
2021/05/12 00:18:19;;;;;;;7.05;4.40;;;12.20;99.90;;;;;;5014569;28;20791;-76
2021/05/12 00:20:46;;;;;;;8.00;5.05;;;12.20;99.90;;;;;;5015310;28;20215;-75
2021/05/12 00:23:14;;;;;;;5.95;5.07;;;12.20;99.90;;;;;;5014912;28;20258;-78
2021/05/12 00:25:41;;;;;;;6.55;4.97;;;12.10;99.90;;;;;;5015134;28;20215;-77
2021/05/12 00:28:07;;;;;;;8.98;5.10;;;12.10;99.90;;;;;;5014477;28;20255;-76
2021/05/12 00:30:34;;;;;;;5.15;4.65;;;12.10;99.90;;;;;;5014338;28;20211;-76
2021/05/12 00:33:01;;;;;;;4.60;3.90;;;12.10;99.90;;;;;;5014547;28;20210;-75
2021/05/12 00:35:28;;;;;;;5.50;5.00;;;12.10;99.90;;;;;;5014157;28;20230;-77
2021/05/12 00:37:54;;;;;;;5.57;5.07;;;12.00;99.90;;;;;;5014210;28;20689;-76
2021/05/12 00:40:21;;;;;;;4.78;4.38;;;12.00;99.90;;;;;;5034113;28;20230;-75
2021/05/12 00:42:49;;;;;;;5.20;4.70;;;12.00;99.90;;;;;;5027615;28;20227;-77
2021/05/12 00:45:16;;;;;;;5.00;4.50;;;12.00;99.90;;;;;;5023822;28;20298;-76
2021/05/12 00:47:48;;;;;;;4.68;4.28;;;12.00;99.90;;;;;;5034582;28;20287;-76
2021/05/12 00:50:17;;;;;;;6.25;4.82;;;12.00;99.90;;;;;;5029520;28;20211;-76
2021/05/12 00:52:43;;;;;;;5.68;4.38;;;12.00;99.90;;;;;;5014711;28;20295;-76
2021/05/12 00:55:11;;;;;;;4.63;4.22;;;12.00;99.90;;;;;;5014581;28;20710;-76
2021/05/12 00:57:37;;;;;;;5.72;4.95;;;12.00;99.90;;;;;;5015061;28;20207;-78
2021/05/12 01:00:07;;;;;;;4.90;4.50;;;12.00;99.90;;;;;;5014545;28;20609;-77
2021/05/12 01:02:33;;;;;;;4.78;4.28;;;11.90;99.90;;;;;;5013774;28;20638;-76
2021/05/12 01:05:00;;;;;;;5.75;4.47;;;11.90;99.90;;;;;;5014437;28;20298;-77
2021/05/12 01:07:27;;;;;;;6.05;4.40;;;11.90;99.90;;;;;;5012156;28;20706;-77
2021/05/12 01:09:53;;;;;;;6.47;4.32;;;11.90;99.90;;;;;;5014533;28;20302;-77
2021/05/12 01:12:20;;;;;;;6.25;4.55;;;11.90;99.90;;;;;;5014897;28;20227;-77
2021/05/12 01:14:46;;;;;;;4.90;4.50;;;11.90;99.90;;;;;;5014596;28;20207;-77
2021/05/12 01:17:15;;;;;;;4.68;4.22;;;11.90;99.90;;;;;;5026241;28;20242;-77
2021/05/12 01:19:42;;;;;;;5.35;4.70;;;11.90;99.90;;;;;;5032973;28;20306;-76
2021/05/12 01:22:10;;;;;;;4.15;3.75;;;11.90;99.90;;;;;;5022390;28;20683;-77
2021/05/12 01:24:37;;;;;;;6.43;4.75;;;11.90;99.90;;;;;;5013054;28;20668;-76
2021/05/12 01:27:04;;;;;;;5.88;5.28;;;11.80;99.90;;;;;;5013535;28;20299;-76
2021/05/12 01:29:30;;;;;;;5.78;4.05;;;11.80;99.90;;;;;;5013126;28;20255;-76
2021/05/12 01:31:57;;;;;;;4.43;4.03;;;11.80;99.90;;;;;;5013836;28;20251;-75
2021/05/12 01:34:24;;;;;;;5.00;4.30;;;11.90;99.90;;;;;;5013691;28;20234;-76
2021/05/12 01:36:51;;;;;;;5.57;4.80;;;11.80;99.90;;;;;;5012731;28;20236;-75
2021/05/12 01:39:19;;;;;;;4.88;3.90;;;11.80;99.90;;;;;;5013031;28;20711;-76
2021/05/12 01:41:45;;;;;;;7.45;4.30;;;11.80;99.90;;;;;;5016227;28;20204;-76
2021/05/12 01:44:13;;;;;;;5.20;4.70;;;11.80;99.90;;;;;;5037021;28;20250;-76
2021/05/12 01:46:41;;;;;;;6.55;3.90;;;11.80;99.90;;;;;;5037311;28;20192;-75
2021/05/12 01:49:08;;;;;;;7.50;4.60;;;11.70;99.90;;;;;;5037472;28;20258;-74
2021/05/12 01:51:36;;;;;;;5.50;4.10;;;11.70;99.90;;;;;;5037380;28;20183;-75
2021/05/12 01:54:03;;;;;;;5.45;4.13;;;11.70;99.90;;;;;;5037291;28;20199;-75
2021/05/12 01:56:30;;;;;;;4.57;4.18;;;11.70;99.90;;;;;;5037247;28;20291;-72
2021/05/12 01:58:57;;;;;;;4.90;4.25;;;11.70;99.90;;;;;;5037397;28;20207;-75
2021/05/12 02:01:23;;;;;;;4.75;3.80;;;11.70;99.90;;;;;;5031827;28;20211;-76
2021/05/12 02:03:49;;;;;;;4.80;4.30;;;11.80;99.90;;;;;;5027985;28;20316;-76
2021/05/12 02:06:16;;;;;;;4.55;3.80;;;11.70;99.90;;;;;;5027457;28;20236;-74
2021/05/12 02:08:43;;;;;;;3.72;3.40;;;11.70;99.90;;;;;;5027645;28;20231;-77
2021/05/12 02:11:09;;;;;;;9.27;4.55;;;11.70;99.90;;;;;;5027361;28;20211;-76
2021/05/12 02:13:37;;;;;;;7.00;4.65;;;11.80;99.90;;;;;;5027470;28;20619;-77
2021/05/12 02:16:08;;;;;;;5.82;4.43;;;11.70;99.90;;;;;;5027850;28;20204;-77
2021/05/12 02:18:35;;;;;;;4.65;3.75;;;11.70;99.90;;;;;;5026811;28;20251;-75
2021/05/12 02:21:02;;;;;;;15.85;5.00;;;11.70;99.90;;;;;;5026727;28;20212;-74
2021/05/12 02:23:29;;;;;;;6.07;4.53;;;11.70;99.90;;;;;;5027277;28;20235;-76
2021/05/12 02:25:56;;;;;;;9.55;4.80;;;11.70;99.90;;;;;;5026973;28;20319;-76
2021/05/12 02:28:22;;;;;;;5.22;4.72;;;11.60;99.90;;;;;;5026132;28;20263;-76
2021/05/12 02:30:49;;;;;;;7.80;4.90;;;11.60;99.90;;;;;;5020223;28;20353;-75
2021/05/12 02:33:17;;;;;;;6.65;4.70;;;11.60;99.90;;;;;;5013356;28;20227;-77
2021/05/12 02:35:44;;;;;;;6.35;4.80;;;11.60;99.90;;;;;;5012703;28;20302;-77
2021/05/12 02:38:10;;;;;;;8.95;5.22;;;11.60;99.90;;;;;;5012549;28;20311;-76
2021/05/12 02:40:37;;;;;;;6.65;5.95;;;11.60;99.90;;;;;;5012605;28;20208;-76
2021/05/12 02:43:03;;;;;;;8.45;5.82;;;11.60;99.90;;;;;;5013969;28;20315;-76
2021/05/12 02:45:32;;;;;;;8.02;5.75;;;11.60;99.90;;;;;;5024279;28;20268;-75
2021/05/12 02:48:00;;;;;;;7.90;5.65;;;11.60;99.90;;;;;;5012046;28;20647;-77
2021/05/12 02:50:28;;;;;;;9.13;6.93;;;11.60;99.90;;;;;;5013158;28;20233;-76
2021/05/12 02:52:55;;;;;;;7.30;6.57;;;11.60;99.90;;;;;;5012547;28;20210;-75
2021/05/12 02:55:23;;;;;;;6.78;6.07;;;11.60;99.90;;;;;;5012777;28;20683;-76
2021/05/12 02:57:49;;;;;;;6.45;5.85;;;11.50;99.90;;;;;;5012506;28;20224;-76
2021/05/12 03:00:18;;;;;;;10.82;6.00;;;11.60;99.90;;;;;;5012647;28;20714;-75
2021/05/12 03:02:45;;;;;;;6.63;5.97;;;11.60;99.90;;;;;;5020546;28;20287;-75
2021/05/12 03:05:14;;;;;;;10.65;6.88;;;11.60;99.90;;;;;;5032726;28;20271;-76
2021/05/12 03:07:41;;;;;;;10.73;7.00;;;11.60;99.90;;;;;;5022657;28;20302;-76
2021/05/12 03:10:11;;;;;;;8.55;6.88;;;11.60;99.90;;;;;;5013025;28;20303;-75
2021/05/12 03:12:38;;;;;;;10.10;7.50;;;11.60;99.90;;;;;;5012551;28;20295;-74
2021/05/12 03:15:07;;;;;;;9.18;7.07;;;11.70;99.90;;;;;;5012918;28;20298;-75
2021/05/12 03:17:34;;;;;;;11.60;7.55;;;11.70;99.90;;;;;;5014985;28;20295;-77
2021/05/12 03:20:00;;;;;;;9.25;7.35;;;11.70;99.90;;;;;;5017218;28;20258;-76
2021/05/12 03:22:27;;;;;;;12.10;7.20;;;11.60;99.90;;;;;;5017277;28;20310;-76
2021/05/12 03:24:54;;;;;;;7.53;6.82;;;11.60;99.90;;;;;;5017552;28;20232;-76
2021/05/12 03:27:20;;;;;;;7.55;6.57;;;11.60;99.90;;;;;;5016285;28;20660;-75
2021/05/12 03:29:47;;;;;;;10.43;7.13;;;11.60;99.90;;;;;;5016287;28;20337;-75
2021/05/12 03:32:13;;;;;;;9.02;6.20;;;11.50;99.90;;;;;;5016515;28;20254;-76
2021/05/12 03:34:39;;;;;;;11.23;6.55;;;11.60;99.90;;;;;;5016107;28;20299;-76
2021/05/12 03:37:06;;;;;;;8.68;5.75;;;11.50;99.90;;;;;;5016696;28;20485;-76
2021/05/12 03:39:33;;;;;;;8.48;5.82;;;11.50;99.90;;;;;;5018002;28;20295;-77
2021/05/12 03:42:00;;;;;;;7.43;5.05;;;11.50;99.90;;;;;;5018482;28;20301;-77
2021/05/12 03:44:26;;;;;;;7.13;4.85;;;11.50;99.90;;;;;;5013248;28;20751;-76
2021/05/12 03:46:52;;;;;;;7.40;5.82;;;11.50;99.90;;;;;;5017761;28;20614;-76
2021/05/12 03:49:19;;;;;;;6.63;4.63;;;11.50;99.90;;;;;;5024951;28;20266;-76
2021/05/12 03:51:45;;;;;;;7.50;5.50;;;11.50;99.90;;;;;;5017100;28;20208;-76
2021/05/12 03:54:12;;;;;;;6.63;4.95;;;11.40;99.90;;;;;;5003641;28;20263;-77
2021/05/12 03:56:39;;;;;;;9.07;4.70;;;11.50;99.90;;;;;;5012481;28;20381;-76
2021/05/12 03:59:05;;;;;;;7.13;4.90;;;11.50;99.90;;;;;;5015901;28;20228;-75
2021/05/12 04:01:32;;;;;;;8.43;5.35;;;11.40;99.90;;;;;;5016298;28;20224;-76
2021/05/12 04:04:04;;;;;;;9.00;5.72;;;11.50;99.90;;;;;;5018288;28;20251;-77
2021/05/12 04:06:31;;;;;;;6.07;5.40;;;11.50;99.90;;;;;;4996238;28;20204;-77
2021/05/12 04:08:57;;;;;;;8.20;5.25;;;11.50;99.90;;;;;;4995589;28;20256;-77
2021/05/12 04:11:23;;;;;;;6.07;5.20;;;11.50;99.90;;;;;;5007613;28;20731;-76
2021/05/12 04:13:51;;;;;;;4.93;4.43;;;11.50;99.90;;;;;;5014272;28;20299;-76
2021/05/12 04:16:17;;;;;;;6.68;4.95;;;11.40;99.90;;;;;;5004035;28;20589;-77
2021/05/12 04:18:43;;;;;;;9.55;4.88;;;11.40;99.90;;;;;;4995561;28;20267;-77
2021/05/12 04:21:10;;;;;;;6.00;3.90;;;11.30;99.70;;;;;;5005977;28;20235;-76
2021/05/12 04:23:36;;;;;;;4.97;4.13;;;11.30;99.80;;;;;;5014460;28;20259;-76
2021/05/12 04:26:03;;;;;;;4.20;3.80;;;11.30;99.70;;;;;;5007308;28;20244;-78
2021/05/12 04:28:29;;;;;;;5.78;3.85;;;11.30;99.30;;;;;;4993892;28;20320;-76
2021/05/12 04:30:56;;;;;;;5.57;4.03;;;11.30;99.40;;;;;;4997503;28;20231;-77
2021/05/12 04:33:23;;;;;;;10.40;4.07;;;11.20;98.90;;;;;;4995374;28;20291;-76
2021/05/12 04:35:49;;;;;;;5.03;4.25;;;11.20;98.90;;;;;;4994767;28;20288;-77
2021/05/12 04:38:15;;;;;;;5.95;4.28;;;11.20;98.90;;;;;;4994895;28;20283;-77
2021/05/12 04:40:42;;;;;;;5.07;4.45;;;11.20;98.90;;;;;;4995971;28;20300;-76
2021/05/12 04:43:08;;;;;;;6.25;4.10;;;11.20;98.90;;;;;;4996889;28;20758;-76
2021/05/12 04:45:35;;;;;;;6.93;4.25;;;11.20;98.90;;;;;;4997208;28;20356;-77
2021/05/12 04:48:02;;;;;;;4.80;4.10;;;11.20;98.90;;;;;;4998116;28;20335;-75
2021/05/12 04:50:30;;;;;;;5.32;4.57;;;11.20;98.50;;;;;;5002326;28;20219;-74
2021/05/12 04:52:57;;;;;;;5.60;3.47;;;11.20;98.10;;;;;;5002877;28;20255;-77
2021/05/12 04:55:24;;;;;;;6.10;4.18;;;11.20;98.00;;;;;;4997344;28;20280;-76
2021/05/12 04:57:50;;;;;;;5.97;4.30;;;11.20;97.60;;;;;;4997207;28;20271;-78
2021/05/12 05:00:20;;;;;;;10.52;3.90;;;11.20;97.20;;;;;;4998896;28;20243;-77
2021/05/12 05:02:47;;;;;;;5.20;4.00;;;11.10;97.10;;;;;;4997626;28;20224;-76
2021/05/12 05:05:17;;;;;;;5.03;4.35;;;11.10;97.20;;;;;;5000038;28;20283;-76
2021/05/12 05:07:43;;;;;;;5.82;4.05;;;11.10;97.10;;;;;;4999844;28;20212;-78
2021/05/12 05:10:10;;;;;;;5.45;3.80;;;11.10;97.10;;;;;;4999607;28;20688;-77
2021/05/12 05:12:37;;;;;;;4.97;4.18;;;11.10;97.50;;;;;;4996327;28;20292;-77
2021/05/12 05:15:05;;;;;;;9.27;4.10;;;11.10;97.30;;;;;;4994909;28;20240;-76
2021/05/12 05:17:32;;;;;;;4.45;3.53;;;11.10;97.30;;;;;;4994091;28;20211;-76
2021/05/12 05:20:05;;;;;;;4.25;3.85;;;11.10;97.20;;;;;;4995175;28;20205;-80
2021/05/12 05:22:33;;;;;;;4.50;3.70;;;11.10;97.10;;;;;;4994683;28;20314;-76
2021/05/12 05:25:00;;;;;;;6.60;3.97;;;11.10;97.20;;;;;;4994553;28;20663;-76
2021/05/12 05:27:26;;;;;;;4.10;3.70;;;11.10;97.30;;;;;;4993761;28;20204;-77
2021/05/12 05:29:53;;;;;;;4.45;3.95;;;11.20;97.10;;;;;;4994894;28;20242;-77
2021/05/12 05:32:19;;;;;;;3.85;3.47;;;11.20;96.80;;;;;;4994891;28;20213;-75
2021/05/12 05:34:46;;;;;;;4.03;3.72;;;11.20;96.30;;;;;;4995240;28;20307;-76
2021/05/12 05:37:12;;;;;;;4.10;3.30;;;11.20;96.30;;;;;;4995461;28;20209;-76
2021/05/12 05:39:40;;;;;;;6.85;3.47;;;11.30;96.10;;;;;;4994121;28;20719;-78
2021/05/12 05:42:09;;;;;;;3.20;2.90;;;11.30;96.00;;;;;;4996616;28;20576;-76
2021/05/12 05:44:36;;;;;;;4.57;3.20;;;11.30;95.70;;;;;;4996238;28;20718;-75
2021/05/12 05:47:04;;;;;;;5.20;3.00;;;11.30;95.40;;;;;;4998504;28;20262;-76
2021/05/12 05:49:30;;;;;;;6.78;3.65;;;11.30;95.40;;;;;;4997529;28;20248;-76
2021/05/12 05:51:56;;;;;;;4.65;2.65;;;11.30;95.30;;;;;;4998199;28;20215;-76
2021/05/12 05:54:24;;;;;;;3.65;3.20;;;11.30;95.30;;;;;;5013845;28;20701;-77
2021/05/12 05:56:52;;;;;;;4.25;3.60;;;11.30;94.90;;;;;;5013753;28;20192;-76
2021/05/12 05:59:19;;;;;;;5.45;3.47;;;11.30;94.70;;;;;;5012842;28;20228;-78
2021/05/12 06:01:45;;;;;;;4.68;3.22;;;11.30;94.40;;;;;;5013268;28;20462;-76
2021/05/12 06:04:12;;;;;;;5.32;3.05;;;11.30;94.60;;;;;;5013609;28;20315;-76
2021/05/12 06:06:38;;;;;;;3.65;3.25;;;11.30;94.70;;;;;;5011641;28;20211;-75
2021/05/12 06:09:05;;;;;;;5.18;2.92;;;11.30;94.40;;;;;;5024031;28;20314;-76
2021/05/12 06:11:31;;;;;;;8.43;5.07;;;11.30;94.40;;;;;;5032507;28;20758;-75
2021/05/12 06:13:59;;;;;;;2.60;2.33;;;11.30;94.10;;;;;;5034198;28;20562;-76
2021/05/12 06:16:25;;;;;;;7.07;2.88;;;11.30;94.20;;;;;;5014738;28;20293;-76
2021/05/12 06:18:52;;;;;;;6.15;2.50;;;11.30;94.40;;;;;;5014346;28;20310;-78
2021/05/12 06:21:19;;;;;;;2.90;1.90;;;11.30;93.80;;;;;;5014726;28;20211;-76
2021/05/12 06:23:45;;;;;;;8.45;2.65;;;11.30;93.70;;;;;;5015119;28;20224;-76
2021/05/12 06:26:16;;;;;;;3.25;2.35;;;11.40;93.60;;;;;;5015752;28;20303;-77
2021/05/12 06:28:43;;;;;;;3.33;2.38;;;11.40;93.50;;;;;;5027231;28;20253;-76
2021/05/12 06:31:11;;;;;;;5.70;2.67;;;11.40;93.20;;;;;;5033673;28;20245;-76
2021/05/12 06:33:39;;;;;;;3.10;2.30;;;11.40;93.00;;;;;;5023104;28;20667;-76
2021/05/12 06:36:06;;;;;;;4.53;2.35;;;11.50;92.60;;;;;;5034637;28;20207;-76
2021/05/12 06:38:33;;;;;;;4.05;2.30;;;11.50;92.50;;;;;;5030154;28;20239;-75
2021/05/12 06:41:00;;;;;;;4.88;1.90;;;11.60;92.00;;;;;;5032804;28;20297;-76
2021/05/12 06:43:27;;;;;;;2.42;2.22;;;11.50;91.30;;;;;;5032980;28;20259;-76
2021/05/12 06:45:53;;;;;;;3.63;2.22;;;11.50;91.50;;;;;;5033141;28;20646;-76
2021/05/12 06:48:20;;;;;;;4.72;2.45;;;11.50;90.90;;;;;;5032910;28;20274;-76
2021/05/12 06:50:47;;;;;;;3.25;2.28;;;11.50;90.80;;;;;;5033487;28;20678;-75
2021/05/12 06:53:13;;;;;;;3.60;2.28;;;11.50;90.80;;;;;;5032245;28;20217;-76
2021/05/12 06:55:40;;;;;;;3.83;1.77;;;11.60;90.80;;;;;;5032818;28;20211;-76
2021/05/12 06:58:07;;;;;;;4.20;2.00;;;11.60;90.60;;;;;;5035167;28;20241;-76
2021/05/12 07:00:34;;;;;;;5.32;1.90;;;11.60;90.20;;;;;;5045910;28;20215;-75
2021/05/12 07:03:00;;;;;;;4.57;1.70;;;11.60;90.30;;;;;;5048579;28;20246;-75
2021/05/12 07:05:28;;;;;;;4.50;1.95;;;11.60;90.00;;;;;;5043078;28;20203;-76
2021/05/12 07:07:54;;;;;;;2.80;2.17;;;11.70;89.90;;;;;;5028637;28;20231;-76
2021/05/12 07:10:20;;;;;;;2.80;1.60;;;11.70;89.60;;;;;;5025817;28;20211;-76
2021/05/12 07:12:47;;;;;;;3.25;1.70;;;11.70;89.20;;;;;;5015097;28;20243;-76
2021/05/12 07:15:14;;;;;;;2.95;2.40;;;11.70;88.60;;;;;;5011831;28;20269;-76
2021/05/12 07:17:40;;;;;;;2.75;2.10;;;11.70;89.00;;;;;;5013688;28;20672;-76
2021/05/12 07:20:08;;;;;;;3.55;2.05;;;11.60;89.50;;;;;;5012612;28;20208;-75
2021/05/12 07:22:36;;;;;;;1.70;1.60;;;11.60;89.90;;;;;;5012369;28;20345;-75
2021/05/12 07:25:03;;;;;;;5.30;2.42;;;11.60;90.00;;;;;;5012628;28;20243;-76
2021/05/12 07:27:32;;;;;;;2.83;2.08;;;11.60;90.10;;;;;;5014721;28;20262;-75
2021/05/12 07:29:59;;;;;;;2.35;2.05;;;11.60;89.20;;;;;;5019634;28;20239;-77
2021/05/12 07:32:28;;;;;;;6.60;2.10;;;11.60;88.10;;;;;;5027876;28;20271;-76
2021/05/12 07:34:54;;;;;;;2.17;1.98;;;11.60;88.90;;;;;;5034568;28;20204;-77
2021/05/12 07:37:21;;;;;;;2.25;1.92;;;11.60;89.20;;;;;;5033911;28;20230;-78
2021/05/12 07:39:48;;;;;;;2.65;1.90;;;11.60;89.50;;;;;;5032909;28;20227;-76
2021/05/12 07:42:17;;;;;;;2.53;2.33;;;11.60;89.30;;;;;;5016451;28;20212;-75
2021/05/12 07:44:43;;;;;;;5.75;2.50;;;11.60;90.00;;;;;;5016488;28;20600;-75
2021/05/12 07:47:10;;;;;;;2.58;2.05;;;11.60;89.90;;;;;;5014691;28;20230;-76
2021/05/12 07:49:38;;;;;;;3.60;2.30;;;11.70;90.00;;;;;;5015091;28;20272;-76
2021/05/12 07:52:12;;;;;;;2.60;2.30;;;11.60;90.10;;;;;;5014980;28;20208;-75
2021/05/12 07:54:38;;;;;;;3.45;2.38;;;11.60;90.50;;;;;;5015705;28;20710;-76
2021/05/12 07:57:06;;;;;;;2.78;2.08;;;11.60;90.40;;;;;;5015951;28;20235;-76
2021/05/12 07:59:32;;;;;;;4.43;3.00;;;11.70;90.50;;;;;;5015807;28;20699;-76
2021/05/12 08:02:01;;;;;;;4.32;2.13;;;11.70;90.30;;;;;;5015045;28;20463;-76
2021/05/12 08:04:28;;;;;;;3.75;2.28;;;11.90;89.50;;;;;;5016132;28;20228;-76
2021/05/12 08:06:54;;;;;;;3.95;2.42;;;12.00;87.00;;;;;;5017583;28;20211;-76
2021/05/12 08:09:21;;;;;;;2.00;1.90;;;12.10;86.60;;;;;;5017092;28;20231;-77
2021/05/12 08:11:47;;;;;;;5.00;2.38;;;12.30;86.80;;;;;;5017025;28;20334;-76
2021/05/12 08:14:14;;;;;;;3.60;2.35;;;12.40;83.40;;;;;;5015440;28;20638;-75
2021/05/12 08:16:41;;;;;;;2.58;2.33;;;12.50;83.70;;;;;;5015871;28;20329;-76
2021/05/12 08:19:07;;;;;;;4.18;2.17;;;12.70;81.10;;;;;;5018852;28;20310;-77
2021/05/12 08:21:34;;;;;;;4.28;2.58;;;12.70;79.70;;;;;;5022908;28;20777;-75
2021/05/12 08:24:00;;;;;;;3.65;1.90;;;12.80;78.80;;;;;;5022571;28;20267;-77
2021/05/12 08:26:28;;;;;;;2.42;2.20;;;12.80;78.80;;;;;;5022938;28;20212;-76
2021/05/12 08:28:55;;;;;;;2.40;2.20;;;12.60;79.30;;;;;;5025049;28;20263;-77
2021/05/12 08:31:22;;;;;;;3.45;2.45;;;12.50;79.50;;;;;;5026735;28;20214;-77
2021/05/12 08:33:49;;;;;;;5.40;3.00;;;12.30;81.90;;;;;;5026353;28;20204;-74
2021/05/12 08:36:15;;;;;;;4.55;2.72;;;12.20;82.80;;;;;;5023709;28;20291;-77
2021/05/12 08:38:46;;;;;;;4.05;2.72;;;12.30;82.60;;;;;;5028497;28;20219;-77
2021/05/12 08:41:13;;;;;;;6.70;2.50;;;12.30;82.60;;;;;;5027980;28;20261;-77
2021/05/12 08:43:40;;;;;;;2.80;2.40;;;12.40;82.50;;;;;;5019383;28;20231;-76
2021/05/12 08:46:08;;;;;;;5.15;2.80;;;12.40;82.20;;;;;;5019765;28;20600;-77
2021/05/12 08:48:36;;;;;;;4.07;3.38;;;12.50;82.80;;;;;;5018023;28;20240;-76
2021/05/12 08:51:04;;;;;;;4.60;2.95;;;12.60;80.80;;;;;;5019480;28;20286;-76
2021/05/12 08:53:30;;;;;;;5.65;2.90;;;12.60;79.10;;;;;;5018309;28;20223;-75
2021/05/12 08:55:58;;;;;;;2.42;2.22;;;12.70;78.70;;;;;;5015215;28;20247;-76
2021/05/12 08:58:25;;;;;;;3.85;3.28;;;12.70;78.80;;;;;;5018813;28;20262;-75
2021/05/12 09:00:52;;;;;;;5.28;2.25;;;12.80;78.80;;;;;;5026743;28;20271;-77
2021/05/12 09:03:18;;;;;;;3.65;3.10;;;12.80;78.20;;;;;;5035565;28;20227;-77
2021/05/12 09:05:45;;;;;;;3.15;2.35;;;12.70;78.70;;;;;;5026634;28;20212;-75
2021/05/12 09:08:12;;;;;;;3.00;2.70;;;12.70;78.70;;;;;;5019452;28;20787;-75
2021/05/12 09:10:38;;;;;;;4.00;2.78;;;12.70;78.70;;;;;;5018951;28;20299;-76
2021/05/12 09:13:05;;;;;;;4.75;2.80;;;12.70;79.40;;;;;;5018869;28;20204;-75
2021/05/12 09:15:32;;;;;;;2.92;2.63;;;12.60;79.50;;;;;;5016208;28;20286;-76
2021/05/12 09:18:02;;;;;;;3.28;2.85;;;12.70;78.80;;;;;;5017425;28;20258;-77
2021/05/12 09:20:37;;;;;;;4.07;3.00;;;12.60;79.50;;;;;;5018806;28;20192;-76
2021/05/12 09:23:10;;;;;;;5.65;2.75;;;12.70;80.50;;;;;;5017837;28;20227;-75
2021/05/12 09:25:39;;;;;;;4.00;3.00;;;12.80;79.60;;;;;;5018384;28;20211;-76
2021/05/12 09:28:11;;;;;;;4.55;3.13;;;12.80;78.80;;;;;;5017621;28;20228;-75
2021/05/12 09:30:38;;;;;;;3.70;2.55;;;12.90;78.90;;;;;;5019850;28;20208;-76
2021/05/12 09:33:06;;;;;;;3.47;2.75;;;12.90;77.60;;;;;;5018843;28;20572;-76
2021/05/12 09:35:39;;;;;;;4.13;2.90;;;13.00;77.90;;;;;;5020208;28;20235;-77
2021/05/12 09:38:17;;;;;;;4.30;2.90;;;13.00;76.90;;;;;;5016988;28;20228;-75
2021/05/12 09:40:44;;;;;;;4.78;2.65;;;13.20;76.20;;;;;;5015795;28;20569;-76
2021/05/12 09:43:12;;;;;;;3.70;3.00;;;13.40;73.30;;;;;;5014093;28;20570;-76
2021/05/12 09:45:39;;;;;;;3.40;2.50;;;13.30;74.00;;;;;;5013793;28;20238;-77
2021/05/12 09:48:06;;;;;;;2.90;2.53;;;13.50;72.30;;;;;;5013634;28;20250;-76
2021/05/12 09:50:35;;;;;;;3.30;2.70;;;13.50;71.90;;;;;;5013701;28;20243;-76
2021/05/12 09:53:03;;;;;;;4.35;2.95;;;13.70;70.90;;;;;;5014307;28;20200;-76
2021/05/12 09:55:34;;;;;;;7.70;2.40;;;13.90;69.10;;;;;;5014872;28;20746;-75
2021/05/12 09:58:03;;;;;;;3.70;2.55;;;14.00;67.80;;;;;;5026514;28;20234;-76
2021/05/12 10:00:31;;;;;;;3.88;2.60;;;14.20;67.60;;;;;;5024212;28;20259;-75
2021/05/12 10:02:58;;;;;;;3.97;2.55;;;14.20;65.80;;;;;;5017974;28;20231;-76
2021/05/12 10:05:25;;;;;;;4.13;2.80;;;14.30;65.50;;;;;;5018114;28;20211;-76
2021/05/12 10:07:52;;;;;;;4.25;2.70;;;14.60;64.60;;;;;;5017594;28;20232;-76
2021/05/12 10:10:36;;;;;;;6.50;2.42;;;15.00;62.40;;;;;;5018390;28;20247;-75
2021/05/12 10:13:03;;;;;;;4.50;2.92;;;15.10;60.90;;;;;;5024866;28;20211;-75
2021/05/12 10:15:30;;;;;;;2.53;2.33;;;15.20;59.60;;;;;;5024772;28;20208;-76
2021/05/12 10:17:56;;;;;;;4.23;3.23;;;15.20;59.30;;;;;;5019822;28;20535;-75
2021/05/12 10:20:23;;;;;;;3.95;2.55;;;15.00;59.20;;;;;;5019678;28;20533;-77
2021/05/12 10:22:50;;;;;;;7.38;2.75;;;15.10;58.80;;;;;;5020261;28;20599;-75
2021/05/12 10:25:17;;;;;;;2.88;2.67;;;15.30;58.30;;;;;;5014362;28;20235;-76
2021/05/12 10:27:48;;;;;;;4.53;2.93;;;15.20;57.70;;;;;;5013130;28;20428;-75
2021/05/12 10:30:16;;;;;;;4.83;2.60;;;15.20;57.50;;;;;;5014009;28;20482;-76
2021/05/12 10:32:48;;;;;;;3.53;3.00;;;15.40;57.10;;;;;;5013928;28;20550;-76
2021/05/12 10:35:15;;;;;;;3.97;3.03;;;15.40;54.50;;;;;;5014196;28;20668;-76
2021/05/12 10:37:43;;;;;;;3.00;2.70;;;15.30;54.70;;;;;;5013320;28;20208;-77
2021/05/12 10:40:18;;;;;;;4.40;2.93;;;15.00;55.00;;;;;;5015500;28;20294;-76
2021/05/12 10:45:57;;;;;;;4.40;2.90;;;15.40;55.70;;;;;;5014367;28;20203;-76
2021/05/12 10:48:38;;;;;;;3.47;3.10;;;15.80;54.70;;;;;;5065409;23;20460;-83
2021/05/12 10:51:06;;;;;;;2.53;2.20;;;16.00;52.00;;;;;;5055940;28;20462;-84
2021/05/12 10:53:34;;;;;;;4.90;3.03;;;16.20;51.50;;;;;;5055597;28;20401;-83
2021/05/12 10:56:06;;;;;;;5.10;2.70;;;16.20;52.90;;;;;;5055102;28;20441;-84
2021/05/12 10:58:58;;;;;;;2.60;2.40;;;16.50;50.50;;;;;;5056922;28;20442;-84
2021/05/12 11:01:26;;;;;;;4.17;2.73;;;16.80;49.70;;;;;;5056911;28;20434;-83
2021/05/12 11:04:15;;;;;;;5.93;3.10;;;17.00;47.30;;;;;;5052879;28;20527;-85
2021/05/12 11:06:58;;;;;;;4.70;3.00;;;16.90;45.90;;;;;;5049819;28;20405;-81
2021/05/12 11:09:40;;;;;;;2.57;2.37;;;17.00;46.00;;;;;;5047160;28;20479;-82
2021/05/12 11:12:10;;;;;;;6.50;3.20;;;17.00;46.00;;;;;;5044569;28;20429;-81
2021/05/12 11:14:39;;;;;;;2.60;2.40;;;17.10;46.10;;;;;;5046052;28;20485;-84
2021/05/12 11:17:07;;;;;;;2.50;2.27;;;17.40;46.40;;;;;;5048449;28;20454;-83
2021/05/12 11:19:47;;;;;;;4.43;2.87;;;17.50;46.50;;;;;;5048479;28;20474;-85
2021/05/12 11:22:36;;;;;;;4.23;2.60;;;17.80;45.60;;;;;;5049139;28;20445;-83
2021/05/12 11:25:10;;;;;;;5.23;3.50;;;17.90;44.90;;;;;;5047829;28;20469;-80
2021/05/12 11:28:06;;;;;;;5.97;4.03;;;18.30;43.80;;;;;;5046332;28;20446;-81
2021/05/12 11:33:21;;;;;;;10.00;2.93;;;18.50;43.60;;;;;;5043380;28;20550;-82
2021/05/12 11:35:57;;;;;;;2.60;2.40;;;18.40;43.90;;;;;;5043561;28;20424;-81
2021/05/12 11:38:31;;;;;;;2.67;2.43;;;18.30;42.50;;;;;;5055614;28;20476;-81
2021/05/12 11:41:07;;;;;;;6.40;2.97;;;17.90;44.00;;;;;;5057400;28;20434;-82
2021/05/12 11:43:36;;;;;;;3.33;2.37;;;18.20;43.80;;;;;;5058507;28;20531;-80
2021/05/12 11:46:25;;;;;;;6.20;2.70;;;18.30;43.10;;;;;;5056712;28;20453;-81
2021/05/12 11:48:55;;;;;;;4.20;2.50;;;18.40;44.10;;;;;;5048006;28;20460;-80
2021/05/12 11:51:33;;;;;;;2.80;2.50;;;18.70;42.40;;;;;;5050135;28;20509;-81
2021/05/12 11:54:01;;;;;;;3.83;2.63;;;18.90;41.00;;;;;;5051131;28;20416;-80
2021/05/12 11:56:29;;;;;;;2.27;2.13;;;18.70;41.40;;;;;;5053450;28;20426;-80
2021/05/12 11:58:59;;;;;;;7.40;2.80;;;18.80;41.80;;;;;;5048854;28;20858;-81
2021/05/12 12:01:28;;;;;;;4.20;3.13;;;18.90;41.70;;;;;;5054556;28;20534;-80
2021/05/12 12:04:07;;;;;;;8.27;3.10;;;19.20;41.60;;;;;;5050047;28;20448;-83
2021/05/12 12:06:40;;;;;;;6.67;2.50;;;19.30;40.50;;;;;;5052223;28;20883;-83
2021/05/12 12:09:06;;;;;;;4.23;2.67;;;19.60;38.40;;;;;;5055934;28;20619;-81
2021/05/12 12:11:34;;;;;;;3.77;2.20;;;19.70;38.50;;;;;;5051798;28;20915;-81
2021/05/12 12:14:02;;;;;;;2.90;2.10;;;19.70;38.50;;;;;;5046824;28;20413;-81
2021/05/12 12:16:30;;;;;;;4.60;2.60;;;19.70;38.50;;;;;;5045204;28;20468;-81
2021/05/12 12:18:57;;;;;;;6.17;2.40;;;19.50;38.30;;;;;;5049232;28;20473;-79
2021/05/12 12:21:32;;;;;;;4.80;2.67;;;19.70;39.70;;;;;;5053234;28;20424;-82
2021/05/12 12:24:08;;;;;;;2.73;2.40;;;19.80;36.90;;;;;;5045975;28;20822;-82
2021/05/12 12:26:36;;;;;;;4.07;2.50;;;19.70;36.70;;;;;;5042997;28;20417;-81
2021/05/12 12:29:06;;;;;;;7.33;3.20;;;19.90;36.60;;;;;;5043466;28;20616;-81
2021/05/12 12:31:37;;;;;;;3.97;2.20;;;19.90;35.50;;;;;;5045845;28;20431;-80
2021/05/12 12:34:17;;;;;;;3.00;1.87;;;19.80;35.30;;;;;;5049618;28;20424;-80
2021/05/12 12:37:03;;;;;;;4.03;2.13;;;19.70;36.30;;;;;;5049917;28;20442;-81
2021/05/12 12:39:50;;;;;;;2.93;2.27;;;19.70;34.70;;;;;;5046750;28;20440;-84
2021/05/12 12:42:22;;;;;;;2.53;2.00;;;19.80;35.50;;;;;;5055037;28;20430;-86
2021/05/12 12:44:49;;;;;;;2.83;2.10;;;19.70;35.90;;;;;;5059089;28;20501;-81
2021/05/12 12:47:17;;;;;;;5.07;2.10;;;19.70;35.40;;;;;;5058937;28;20509;-83
2021/05/12 12:49:47;;;;;;;5.17;2.07;;;20.00;34.00;;;;;;5048296;28;20460;-82
2021/05/12 12:52:17;;;;;;;2.97;2.30;;;20.20;33.80;;;;;;5052614;28;20431;-81
2021/05/12 12:54:51;;;;;;;3.23;1.80;;;20.50;33.80;;;;;;5042425;28;20469;-84
2021/05/12 12:57:20;;;;;;;3.80;2.30;;;20.50;32.80;;;;;;5036114;28;20462;-82